Time;durP1;ratioP1;P1;durP2;ratioP2;P2;SDS_P1;SDS_P2;PMS_P1;PMS_P2;Temp;Humidity;BMP_temperature;BMP_pressure;BME280_temperature;BME280_humidity;BME280_pressure;Samples;Min_cycle;Max_cycle;Signal;HPM_P1;HPM_P2
2021/04/18 00:00:21;;;;;;;46.37;22.02;;;;;;;26.53;35.01;158128.67;1743011;82;22206;-73
2021/04/18 00:02:54;;;;;;;42.88;21.70;;;;;;;26.52;34.98;158123.34;1714096;84;21835;-72
2021/04/18 00:05:29;;;;;;;37.95;22.15;;;;;;;26.51;35.10;158122.05;1738301;82;21344;-73
2021/04/18 00:08:04;;;;;;;37.63;20.57;;;;;;;26.46;35.38;158107.44;1735276;82;21725;-72
2021/04/18 00:10:39;;;;;;;34.95;19.20;;;;;;;26.54;35.54;158130.03;1713917;82;21864;-73
2021/04/18 00:13:13;;;;;;;39.10;21.17;;;;;;;26.69;35.53;158171.20;1737098;82;21317;-72
2021/04/18 00:15:47;;;;;;;46.23;23.00;;;;;;;26.81;35.41;158201.75;1741940;82;21202;-74
2021/04/18 00:18:20;;;;;;;41.20;21.52;;;;;;;26.89;35.28;158223.05;1741282;82;21208;-73
2021/04/18 00:20:52;;;;;;;42.62;22.25;;;;;;;27.10;35.15;158278.92;1720816;82;21321;-72
2021/04/18 00:23:24;;;;;;;42.03;22.48;;;;;;;27.32;35.02;158337.41;1714112;83;21848;-71
2021/04/18 00:25:57;;;;;;;33.48;20.08;;;;;;;27.41;34.82;158362.69;1718016;82;21844;-73
2021/04/18 00:28:30;;;;;;;34.40;20.30;;;;;;;27.59;34.63;158410.53;1740416;82;21810;-72
2021/04/18 00:31:03;;;;;;;35.55;18.85;;;;;;;27.69;34.52;158437.17;1712837;84;21227;-71
2021/04/18 00:33:35;;;;;;;29.45;17.92;;;;;;;27.74;34.50;158451.80;1713451;82;21207;-71
2021/04/18 00:36:08;;;;;;;28.40;16.12;;;;;;;27.83;34.50;158475.78;1710032;83;21356;-72
2021/04/18 00:38:42;;;;;;;28.25;16.42;;;;;;;27.89;34.51;158490.41;1714891;83;21296;-71
2021/04/18 00:41:15;;;;;;;29.98;15.72;;;;;;;27.87;34.56;158486.38;1714269;83;21380;-71
2021/04/18 00:43:47;;;;;;;22.17;12.82;;;;;;;27.83;34.65;158475.78;1716344;82;21685;-72
2021/04/18 00:46:20;;;;;;;20.02;12.20;;;;;;;27.89;34.74;158491.72;1714575;82;21317;-71
2021/04/18 00:48:52;;;;;;;20.77;12.10;;;;;;;27.95;34.73;158506.34;1714078;82;21158;-72
2021/04/18 00:51:24;;;;;;;19.10;10.68;;;;;;;27.98;34.74;158514.34;1764290;80;22420;-72
2021/04/18 00:53:56;;;;;;;18.62;11.38;;;;;;;27.98;34.81;158515.64;1720935;83;21295;-72
2021/04/18 00:56:29;;;;;;;19.23;10.15;;;;;;;27.81;34.94;158470.45;1741955;81;21216;-72
2021/04/18 00:59:02;;;;;;;20.37;10.85;;;;;;;27.67;35.18;158431.84;1756165;80;21300;-72
2021/04/18 01:01:35;;;;;;;18.70;10.32;;;;;;;27.63;35.17;158421.19;1713345;82;21271;-72
2021/04/18 01:04:08;;;;;;;14.73;8.98;;;;;;;27.53;35.32;158394.59;1723816;82;21220;-73
2021/04/18 01:06:40;;;;;;;18.10;11.22;;;;;;;27.54;35.35;158397.25;1771375;79;21244;-71
2021/04/18 01:09:13;;;;;;;17.10;9.20;;;;;;;27.53;35.38;158395.91;1792367;79;21321;-72
2021/04/18 01:11:47;;;;;;;15.45;9.83;;;;;;;27.48;35.50;158382.64;1784960;79;21334;-71
2021/04/18 01:14:20;;;;;;;13.98;9.60;;;;;;;27.45;35.53;158373.28;1797218;79;21228;-73
2021/04/18 01:16:52;;;;;;;16.20;9.30;;;;;;;27.43;35.57;158367.95;1795338;79;21141;-71
2021/04/18 01:19:53;;;;;;;16.05;10.55;;;;;;;27.42;35.66;158363.98;1799817;79;21409;-72
2021/04/18 01:22:27;;;;;;;15.75;9.30;;;;;;;27.33;35.74;158340.06;1774845;80;21338;-71
2021/04/18 01:25:01;;;;;;;14.25;9.05;;;;;;;27.27;35.83;158325.45;1777519;80;21225;-72
2021/04/18 01:27:44;;;;;;;14.20;9.55;;;;;;;27.30;35.86;158332.08;1775475;80;21339;-73
2021/04/18 01:30:27;;;;;;;17.07;9.75;;;;;;;27.16;36.03;158296.20;1766260;80;21354;-73
2021/04/18 01:33:03;;;;;;;16.82;10.15;;;;;;;27.38;35.91;158354.69;1769167;80;21296;-72
2021/04/18 01:35:34;;;;;;;16.42;10.25;;;;;;;27.28;36.04;158328.11;1771057;80;21455;-71
2021/04/18 01:38:09;;;;;;;19.30;11.48;;;;;;;27.39;35.98;158357.36;1760466;80;21229;-71
2021/04/18 01:40:43;;;;;;;16.73;9.98;;;;;;;27.35;36.08;158345.41;1736144;80;21206;-72
2021/04/18 01:43:19;;;;;;;20.32;11.55;;;;;;;27.46;36.01;158375.95;1780287;80;21262;-72
2021/04/18 01:45:52;;;;;;;20.95;11.68;;;;;;;27.34;36.07;158344.03;1768686;80;21243;-73
2021/04/18 01:48:26;;;;;;;18.85;10.98;;;;;;;27.23;36.15;158314.78;1783343;80;21324;-73
2021/04/18 01:51:02;;;;;;;17.42;11.48;;;;;;;27.11;36.37;158282.89;1775820;80;21295;-72
2021/04/18 01:53:36;;;;;;;16.52;10.58;;;;;;;27.27;36.22;158325.45;1724961;81;21309;-73
2021/04/18 01:56:10;;;;;;;19.82;10.70;;;;;;;27.33;36.02;158341.37;1767139;80;21854;-72
2021/04/18 01:58:42;;;;;;;21.25;11.70;;;;;;;27.14;36.29;158289.56;1740527;80;21298;-72
2021/04/18 02:01:16;;;;;;;21.12;11.12;;;;;;;27.32;36.13;158338.70;1778110;80;21712;-73
2021/04/18 02:03:49;;;;;;;19.27;10.45;;;;;;;27.31;36.14;158336.09;1775173;80;21194;-73
2021/04/18 02:06:22;;;;;;;20.05;11.35;;;;;;;27.37;36.12;158350.72;1745763;80;21732;-73
2021/04/18 02:08:56;;;;;;;18.00;9.95;;;;;;;27.35;36.14;158346.70;1786430;80;21296;-72
2021/04/18 02:11:37;;;;;;;17.87;10.25;;;;;;;27.37;36.12;158350.72;1782094;80;21375;-74
2021/04/18 02:14:12;;;;;;;18.92;10.82;;;;;;;27.57;35.89;158405.20;1757368;80;21159;-73
2021/04/18 02:16:46;;;;;;;20.82;10.43;;;;;;;27.48;35.92;158382.64;1759887;80;21174;-74
2021/04/18 02:19:20;;;;;;;17.17;10.45;;;;;;;27.53;35.88;158394.59;1735609;82;21221;-73
2021/04/18 02:21:52;;;;;;;19.45;10.20;;;;;;;27.55;35.84;158399.87;1718690;81;21238;-74
2021/04/18 02:24:25;;;;;;;18.98;10.85;;;;;;;27.83;35.43;158475.78;1732943;82;21879;-73
2021/04/18 02:26:57;;;;;;;17.40;10.30;;;;;;;27.73;35.52;158447.83;1773038;80;21194;-72
2021/04/18 02:29:32;;;;;;;17.80;10.70;;;;;;;27.63;35.70;158421.19;1760832;80;21368;-74
2021/04/18 02:32:07;;;;;;;16.80;10.13;;;;;;;27.68;35.58;158435.86;1700269;82;21314;-73
2021/04/18 02:34:41;;;;;;;17.75;10.00;;;;;;;27.52;35.70;158393.23;1719732;82;21305;-73
2021/04/18 02:37:14;;;;;;;19.57;10.53;;;;;;;27.58;35.52;158409.22;1728630;83;21369;-73
2021/04/18 02:39:46;;;;;;;18.52;10.38;;;;;;;27.60;35.43;158414.50;1725307;83;21149;-73
2021/04/18 02:42:20;;;;;;;17.48;10.13;;;;;;;27.57;35.38;158405.20;1734476;81;21170;-73
2021/04/18 02:44:53;;;;;;;15.63;10.00;;;;;;;27.80;35.20;158467.78;1759509;81;21215;-73
2021/04/18 02:47:28;;;;;;;16.93;9.40;;;;;;;27.73;35.21;158447.83;1734883;82;21419;-72
2021/04/18 02:50:01;;;;;;;17.70;10.63;;;;;;;27.53;35.35;158394.59;1724612;82;21380;-73
2021/04/18 02:52:33;;;;;;;17.15;9.70;;;;;;;27.63;35.12;158421.19;1751971;82;21214;-72
2021/04/18 02:55:08;;;;;;;16.62;9.18;;;;;;;27.51;35.18;158390.58;1744117;81;21428;-73
2021/04/18 02:57:41;;;;;;;16.55;8.63;;;;;;;27.42;35.32;158363.98;1741901;81;21698;-72
2021/04/18 03:00:15;;;;;;;17.65;9.30;;;;;;;27.22;35.54;158310.81;1769872;81;21217;-72
2021/04/18 03:02:48;;;;;;;15.48;9.13;;;;;;;27.37;35.45;158350.72;1747113;81;21186;-73
2021/04/18 03:05:21;;;;;;;16.62;9.20;;;;;;;27.19;35.70;158304.19;1748481;81;21221;-72
2021/04/18 03:07:55;;;;;;;14.90;8.65;;;;;;;27.42;35.42;158363.98;1733631;82;21324;-72
2021/04/18 03:10:28;;;;;;;14.78;8.48;;;;;;;27.40;35.41;158360.02;1753134;81;21210;-74
2021/04/18 03:13:00;;;;;;;14.30;8.35;;;;;;;27.41;35.44;158362.69;1761773;81;21273;-72
2021/04/18 03:15:34;;;;;;;12.37;7.90;;;;;;;27.57;35.38;158405.20;1750408;81;21205;-73
2021/04/18 03:18:09;;;;;;;13.88;8.15;;;;;;;27.50;35.51;158386.61;1747855;82;21285;-73
2021/04/18 03:20:42;;;;;;;15.08;8.83;;;;;;;27.54;35.53;158397.25;1746068;81;21839;-72
2021/04/18 03:23:16;;;;;;;13.28;8.83;;;;;;;27.79;35.29;158465.12;1763184;79;21320;-71
2021/04/18 03:25:50;;;;;;;15.75;8.40;;;;;;;27.84;35.31;158477.08;1813756;79;21340;-73
2021/04/18 03:28:22;;;;;;;14.03;7.50;;;;;;;27.87;35.28;158486.38;1812501;79;21728;-73
2021/04/18 03:30:57;;;;;;;12.98;8.13;;;;;;;27.98;35.24;158514.34;1780018;80;21677;-73
2021/04/18 03:33:30;;;;;;;12.73;7.58;;;;;;;28.08;35.17;158542.25;1799160;79;21333;-73
2021/04/18 03:36:10;;;;;;;12.33;7.92;;;;;;;28.20;35.11;158572.86;1802145;79;21300;-73
2021/04/18 03:38:43;;;;;;;16.27;8.68;;;;;;;28.50;34.87;158655.39;1808964;79;21694;-73
2021/04/18 03:41:17;;;;;;;10.82;7.33;;;;;;;28.65;34.58;158693.97;1788072;79;21373;-73
2021/04/18 03:43:49;;;;;;;15.90;9.35;;;;;;;28.44;34.86;158638.09;1792659;79;21288;-73
2021/04/18 03:46:23;;;;;;;13.80;8.93;;;;;;;28.50;34.73;158654.09;1779296;80;21321;-73
2021/04/18 03:48:57;;;;;;;14.20;8.48;;;;;;;28.48;34.69;158650.06;1790063;79;21807;-73
2021/04/18 03:51:33;;;;;;;18.23;8.40;;;;;;;28.50;34.66;158654.09;1771969;80;21360;-74
2021/04/18 03:54:07;;;;;;;11.40;7.03;;;;;;;28.23;34.84;158582.22;1763624;79;21800;-73
2021/04/18 03:56:39;;;;;;;12.95;7.75;;;;;;;28.27;34.80;158591.52;1809906;79;21157;-72
2021/04/18 03:59:12;;;;;;;11.55;7.30;;;;;;;28.39;34.76;158623.45;1788186;79;22409;-73
2021/04/18 04:01:45;;;;;;;13.18;7.53;;;;;;;28.54;34.68;158664.70;1812820;79;21463;-72
2021/04/18 04:04:20;;;;;;;13.40;8.00;;;;;;;28.54;34.71;158664.70;1804175;79;21827;-72
2021/04/18 04:06:53;;;;;;;15.18;8.33;;;;;;;28.47;34.72;158646.09;1776177;79;21209;-72
2021/04/18 04:09:29;;;;;;;15.85;7.90;;;;;;;28.34;34.92;158610.19;1795843;79;21149;-72
2021/04/18 04:12:02;;;;;;;11.48;7.40;;;;;;;28.09;35.15;158543.59;1810863;79;21205;-73
2021/04/18 04:14:37;;;;;;;14.28;8.33;;;;;;;27.97;35.37;158511.67;1810768;79;21150;-72
2021/04/18 04:17:10;;;;;;;12.07;7.67;;;;;;;28.06;35.35;158536.97;1814420;79;21308;-73
2021/04/18 04:20:00;;;;;;;12.45;7.87;;;;;;;28.24;35.15;158583.58;1792414;79;21823;-73
2021/04/18 04:22:36;;;;;;;12.58;7.67;;;;;;;28.20;35.20;158574.17;1783727;79;21162;-73
2021/04/18 04:25:12;;;;;;;12.95;6.20;;;;;;;28.07;35.25;158538.27;1810677;79;21303;-72
2021/04/18 04:27:44;;;;;;;14.45;7.53;;;;;;;28.12;35.09;158551.59;1800512;79;21701;-74
2021/04/18 04:30:17;;;;;;;11.65;6.90;;;;;;;28.27;35.07;158591.52;1777139;79;21127;-73
2021/04/18 04:32:49;;;;;;;10.32;7.00;;;;;;;28.30;35.03;158600.83;1799625;79;21289;-72
2021/04/18 04:35:22;;;;;;;12.07;7.45;;;;;;;28.32;34.93;158606.16;1797112;79;21340;-72
2021/04/18 04:37:54;;;;;;;12.28;7.83;;;;;;;28.26;35.05;158590.22;1798593;79;21872;-71
2021/04/18 04:40:26;;;;;;;11.88;6.70;;;;;;;28.05;35.26;158532.94;1798712;80;21281;-72
2021/04/18 04:42:59;;;;;;;10.72;6.20;;;;;;;27.97;35.18;158512.97;1798812;80;21170;-72
2021/04/18 04:45:31;;;;;;;12.23;7.33;;;;;;;27.99;35.24;158517.00;1783899;78;21138;-71
2021/04/18 04:48:04;;;;;;;11.43;6.87;;;;;;;27.95;35.33;158507.66;1798306;80;21328;-72
2021/04/18 04:50:37;;;;;;;10.78;6.47;;;;;;;28.00;35.29;158519.66;1799947;79;21237;-72
2021/04/18 04:53:09;;;;;;;9.25;6.17;;;;;;;28.44;34.77;158638.09;1797940;79;21796;-73
2021/04/18 04:55:43;;;;;;;12.95;6.17;;;;;;;27.12;36.11;158285.55;1794961;80;21313;-72
2021/04/18 04:58:15;;;;;;;10.48;6.75;;;;;;;26.91;36.56;158229.69;1798727;80;21384;-73
2021/04/18 05:00:48;;;;;;;9.65;5.75;;;;;;;26.84;36.85;158209.73;1780297;79;21308;-71
2021/04/18 05:03:24;;;;;;;9.60;6.05;;;;;;;26.87;36.83;158219.03;1787689;78;21678;-72
2021/04/18 05:05:55;;;;;;;9.58;6.22;;;;;;;26.85;36.85;158212.41;1794288;78;21195;-72
2021/04/18 05:08:27;;;;;;;9.65;6.33;;;;;;;26.82;36.88;158204.41;1793626;79;21368;-71
2021/04/18 05:11:00;;;;;;;10.68;6.37;;;;;;;26.78;36.99;158195.13;1767804;79;21353;-71
2021/04/18 05:13:32;;;;;;;9.88;6.75;;;;;;;26.91;36.84;158228.33;1784027;79;21856;-70
2021/04/18 05:16:06;;;;;;;12.88;6.83;;;;;;;26.94;36.73;158236.31;1791523;79;21770;-73
2021/04/18 05:18:39;;;;;;;11.03;6.58;;;;;;;27.14;36.67;158290.88;1790645;79;21852;-71
2021/04/18 05:21:13;;;;;;;11.35;6.83;;;;;;;27.20;36.66;158306.81;1780055;79;21146;-70
2021/04/18 05:23:46;;;;;;;12.25;7.03;;;;;;;27.27;36.43;158324.09;1791267;79;21437;-68
2021/04/18 05:26:18;;;;;;;12.50;7.35;;;;;;;27.31;36.56;158336.09;1747678;81;21987;-73
2021/04/18 05:28:53;;;;;;;8.68;5.70;;;;;;;27.40;36.57;158358.66;1736079;82;21214;-71
2021/04/18 05:31:25;;;;;;;10.90;6.10;;;;;;;27.34;36.71;158344.03;1768277;80;21452;-72
2021/04/18 05:33:57;;;;;;;9.43;5.53;;;;;;;27.38;36.30;158354.69;1767772;80;21313;-70
2021/04/18 05:36:30;;;;;;;9.00;5.75;;;;;;;27.33;36.37;158340.06;1737118;82;21246;-73
2021/04/18 05:39:07;;;;;;;9.60;6.03;;;;;;;27.24;36.55;158317.45;1766447;81;21431;-74
2021/04/18 05:41:38;;;;;;;10.23;5.97;;;;;;;27.30;36.48;158333.44;1741455;80;21248;-70
2021/04/18 05:44:17;;;;;;;8.25;5.90;;;;;;;27.35;36.30;158346.70;1775193;80;21291;-73
2021/04/18 05:46:49;;;;;;;9.70;6.42;;;;;;;27.26;36.47;158322.78;1767176;81;21236;-72
2021/04/18 05:49:23;;;;;;;9.15;6.03;;;;;;;27.19;36.51;158304.19;1767347;81;21360;-71
2021/04/18 05:51:56;;;;;;;10.48;6.35;;;;;;;27.20;36.58;158306.81;1768982;80;21305;-69
2021/04/18 05:54:29;;;;;;;10.70;5.95;;;;;;;27.17;36.45;158298.88;1767722;80;21319;-71
2021/04/18 05:57:04;;;;;;;8.70;5.97;;;;;;;27.22;36.66;158310.81;1767074;81;21405;-70
2021/04/18 05:59:38;;;;;;;11.18;6.20;;;;;;;27.32;36.51;158337.41;1770333;81;21329;-72
2021/04/18 06:02:10;;;;;;;9.28;5.85;;;;;;;27.33;36.38;158340.06;1769327;80;21820;-71
2021/04/18 06:04:45;;;;;;;9.50;5.97;;;;;;;27.30;36.43;158333.44;1767782;81;21377;-71
2021/04/18 06:07:19;;;;;;;10.28;6.08;;;;;;;27.34;36.58;158342.73;1766111;81;22783;-70
2021/04/18 06:09:55;;;;;;;9.65;6.20;;;;;;;27.41;36.26;158361.33;1747477;80;21414;-72
2021/04/18 06:12:29;;;;;;;10.25;6.70;;;;;;;27.41;36.54;158361.33;1749537;80;21199;-73
2021/04/18 06:15:02;;;;;;;10.75;6.58;;;;;;;27.42;36.65;158365.34;1728499;82;21689;-68
2021/04/18 06:17:34;;;;;;;11.43;6.87;;;;;;;27.49;36.50;158383.94;1745281;82;21273;-69
2021/04/18 06:20:08;;;;;;;8.50;5.65;;;;;;;27.49;36.63;158385.25;1745292;81;21242;-71
2021/04/18 06:22:41;;;;;;;9.58;6.10;;;;;;;27.53;36.56;158395.91;1745819;81;21712;-71
2021/04/18 06:25:16;;;;;;;10.63;6.80;;;;;;;27.65;36.51;158426.56;1744464;81;21317;-70
2021/04/18 06:27:52;;;;;;;10.10;6.35;;;;;;;27.72;36.70;158446.47;1744009;81;21713;-77
2021/04/18 06:30:25;;;;;;;11.55;7.00;;;;;;;27.70;36.78;158441.19;1745173;82;21352;-75
2021/04/18 06:32:58;;;;;;;10.88;6.58;;;;;;;27.78;36.58;158461.09;1732323;82;21231;-76
2021/04/18 06:35:31;;;;;;;11.28;6.60;;;;;;;27.72;36.49;158445.16;1730030;82;21214;-74
2021/04/18 06:38:03;;;;;;;8.90;6.15;;;;;;;27.60;36.92;158413.19;1729502;82;21226;-73
2021/04/18 06:40:36;;;;;;;11.95;6.62;;;;;;;27.57;36.66;158406.56;1743295;80;21934;-72
2021/04/18 06:43:11;;;;;;;9.78;6.37;;;;;;;27.64;36.67;158425.20;1721063;83;21305;-73
2021/04/18 06:45:44;;;;;;;10.03;6.58;;;;;;;27.76;36.71;158457.13;1735519;81;21587;-71
2021/04/18 06:48:21;;;;;;;9.75;6.50;;;;;;;27.86;36.42;158482.41;1706723;82;21174;-72
2021/04/18 06:50:56;;;;;;;7.58;5.50;;;;;;;27.90;36.44;158493.02;1754314;80;21219;-71
2021/04/18 06:53:28;;;;;;;9.90;5.90;;;;;;;27.99;36.24;158518.31;1707270;82;21410;-70
2021/04/18 06:56:03;;;;;;;10.18;6.62;;;;;;;28.09;36.37;158543.59;1723606;82;21857;-69
2021/04/18 06:58:35;;;;;;;8.70;5.50;;;;;;;28.20;36.31;158572.86;1704912;82;21773;-72
2021/04/18 07:01:08;;;;;;;9.60;5.50;;;;;;;28.21;36.05;158576.84;1723726;82;21238;-70
2021/04/18 07:03:42;;;;;;;8.18;5.37;;;;;;;28.15;36.02;158559.53;1748119;81;21199;-70
2021/04/18 07:06:16;;;;;;;9.35;5.95;;;;;;;28.08;36.18;158542.25;1726261;82;21314;-72
2021/04/18 07:08:58;;;;;;;11.78;6.17;;;;;;;28.10;36.25;158546.27;1706664;82;21357;-70
2021/04/18 07:11:52;;;;;;;7.72;5.30;;;;;;;28.09;36.14;158543.59;1735724;82;21797;-71
2021/04/18 07:14:34;;;;;;;8.23;4.92;;;;;;;28.02;36.25;158524.94;1735257;82;21404;-69
2021/04/18 07:17:15;;;;;;;7.45;5.50;;;;;;;28.14;36.26;158558.23;1734504;82;21389;-69
2021/04/18 07:19:50;;;;;;;9.68;6.55;;;;;;;28.38;35.84;158622.16;1726439;82;21235;-73
2021/04/18 07:22:29;;;;;;;7.30;4.92;;;;;;;28.35;35.73;158614.16;1775438;79;21392;-70
2021/04/18 07:25:02;;;;;;;7.75;5.17;;;;;;;28.28;35.74;158595.55;1754721;81;21163;-71
2021/04/18 07:27:51;;;;;;;8.18;5.12;;;;;;;28.46;35.89;158643.42;1775405;79;21206;-71
2021/04/18 07:30:26;;;;;;;6.37;4.72;;;;;;;28.50;35.86;158655.39;1788636;78;21888;-71
2021/04/18 07:33:07;;;;;;;7.67;4.95;;;;;;;28.62;35.85;158687.34;1804699;78;21327;-70
2021/04/18 07:35:42;;;;;;;8.20;5.15;;;;;;;28.73;35.69;158715.30;1809713;78;21388;-70
2021/04/18 07:38:22;;;;;;;7.70;5.00;;;;;;;28.79;35.47;158732.61;1802644;79;21907;-74
2021/04/18 07:41:08;;;;;;;7.60;5.08;;;;;;;28.63;35.85;158688.69;1805698;79;21379;-72
2021/04/18 07:43:43;;;;;;;7.87;5.35;;;;;;;28.69;35.91;158704.64;1743781;79;21230;-73
2021/04/18 07:46:18;;;;;;;8.40;4.83;;;;;;;28.72;35.57;158712.62;1784217;79;21324;-71
2021/04/18 07:48:52;;;;;;;9.33;5.67;;;;;;;28.73;35.67;158716.61;1805307;79;21359;-80
2021/04/18 07:51:24;;;;;;;8.38;5.22;;;;;;;28.76;35.94;158723.31;1802588;79;21874;-76
2021/04/18 07:53:57;;;;;;;7.65;4.95;;;;;;;28.90;35.58;158760.58;1803886;79;21289;-71
2021/04/18 07:56:29;;;;;;;7.60;5.47;;;;;;;28.88;35.57;158756.61;1805600;79;21328;-70
2021/04/18 07:59:01;;;;;;;8.20;5.87;;;;;;;28.88;35.79;158756.61;1805518;79;21344;-69
2021/04/18 08:01:35;;;;;;;7.72;5.65;;;;;;;28.90;35.69;158760.58;1804462;79;21411;-77
2021/04/18 08:04:09;;;;;;;7.83;5.08;;;;;;;28.89;35.82;158759.28;1803850;79;21335;-70
2021/04/18 08:06:44;;;;;;;8.88;5.40;;;;;;;28.94;35.82;158772.56;1801911;79;21364;-73
2021/04/18 08:09:21;;;;;;;8.60;4.83;;;;;;;28.91;35.88;158763.25;1806484;79;21170;-70
2021/04/18 08:12:11;;;;;;;7.22;5.28;;;;;;;28.92;36.02;158765.91;1807996;79;21176;-72
2021/04/18 08:14:47;;;;;;;7.83;5.03;;;;;;;28.89;36.22;158757.92;1806159;79;21962;-70
2021/04/18 08:17:20;;;;;;;8.68;5.50;;;;;;;28.93;36.06;158768.58;1800267;79;21958;-72
2021/04/18 08:20:02;;;;;;;10.10;6.00;;;;;;;28.82;36.23;158740.61;1797207;79;21226;-70
2021/04/18 08:23:07;;;;;;;7.67;5.37;;;;;;;28.75;36.37;158721.94;1800492;79;21645;-73
2021/04/18 08:26:00;;;;;;;8.13;4.95;;;;;;;28.82;36.44;158740.61;1805129;79;21380;-71
2021/04/18 08:28:35;;;;;;;7.58;5.12;;;;;;;28.83;36.31;158743.28;1807271;79;21351;-72
2021/04/18 08:31:10;;;;;;;8.43;5.67;;;;;;;28.88;36.37;158756.61;1797663;79;21297;-69
2021/04/18 08:33:48;;;;;;;10.28;6.47;;;;;;;28.95;36.30;158773.92;1796365;79;21329;-70
2021/04/18 08:36:23;;;;;;;12.63;6.42;;;;;;;28.86;36.40;158749.97;1773844;79;21340;-71
2021/04/18 08:39:07;;;;;;;7.83;5.20;;;;;;;28.90;36.23;158760.58;1787898;79;21392;-71
2021/04/18 08:41:47;;;;;;;8.03;5.08;;;;;;;28.80;35.86;158733.92;1778176;79;21373;-75
2021/04/18 08:44:43;;;;;;;7.87;5.37;;;;;;;28.72;36.00;158713.94;1792354;79;21146;-71
2021/04/18 08:47:17;;;;;;;7.15;4.72;;;;;;;28.58;35.88;158676.72;1776638;80;21222;-73
2021/04/18 08:49:57;;;;;;;7.22;4.97;;;;;;;28.85;35.56;158748.61;1771945;78;21372;-70
2021/04/18 08:52:33;;;;;;;8.30;4.67;;;;;;;28.67;35.92;158700.66;1785927;79;21353;-72
2021/04/18 08:55:12;;;;;;;7.25;4.87;;;;;;;28.74;35.94;158719.28;1793889;79;21301;-75
2021/04/18 08:57:44;;;;;;;7.35;4.33;;;;;;;28.74;35.93;158717.97;1794469;79;21372;-73
2021/04/18 09:00:17;;;;;;;8.33;5.67;;;;;;;28.85;35.94;158748.61;1789101;79;21249;-73
2021/04/18 09:03:15;;;;;;;7.47;5.10;;;;;;;28.91;35.87;158764.61;1779047;79;21336;-73
2021/04/18 09:06:28;;;;;;;7.25;4.30;;;;;;;28.96;35.89;158776.58;1792379;78;22380;-77
2021/04/18 09:08:54;;;;;;;8.93;5.53;;;;;;;28.97;36.12;158779.25;1794275;78;21209;-74
2021/04/18 09:11:28;;;;;;;7.25;4.85;;;;;;;28.92;35.74;158767.28;1799253;78;22033;-74
2021/04/18 09:14:02;;;;;;;8.20;5.58;;;;;;;28.80;35.87;158735.28;1792256;79;21369;-72
2021/04/18 09:16:38;;;;;;;7.15;5.20;;;;;;;28.67;35.83;158699.31;1792120;79;21535;-81
2021/04/18 09:19:27;;;;;;;8.95;5.62;;;;;;;28.78;35.89;158729.94;1774873;80;22039;-76
2021/04/18 09:22:15;;;;;;;8.05;5.08;;;;;;;28.73;35.94;158715.30;1785726;79;21643;-73
2021/04/18 09:24:57;;;;;;;9.10;5.28;;;;;;;28.62;36.12;158686.03;1788308;79;21289;-75
2021/04/18 09:27:54;;;;;;;7.12;5.28;;;;;;;28.68;36.20;158703.33;1791281;79;21808;-74
2021/04/18 09:30:29;;;;;;;8.95;5.40;;;;;;;28.76;36.05;158723.31;1792238;79;21371;-71
2021/04/18 09:33:03;;;;;;;8.15;5.15;;;;;;;28.78;36.03;158729.94;1790303;79;21906;-74
2021/04/18 09:35:35;;;;;;;12.30;6.95;;;;;;;28.78;36.03;158729.94;1806635;79;21394;-81
2021/04/18 09:38:09;;;;;;;13.68;7.70;;;;;;;28.68;36.06;158703.33;1810396;79;22533;-79
2021/04/18 09:40:41;;;;;;;11.28;6.37;;;;;;;28.69;36.20;158704.64;1804277;79;21243;-76
2021/04/18 09:43:17;;;;;;;9.50;5.85;;;;;;;28.51;36.34;158656.75;1800321;79;21238;-77
2021/04/18 09:45:53;;;;;;;8.85;6.25;;;;;;;28.52;36.56;158659.42;1779196;79;21225;-80
2021/04/18 09:48:27;;;;;;;9.35;5.85;;;;;;;28.61;36.54;158683.36;1788185;79;21364;-74
2021/04/18 09:51:04;;;;;;;9.03;5.78;;;;;;;28.63;36.28;158688.69;1803243;79;21352;-77
2021/04/18 09:53:37;;;;;;;9.48;6.00;;;;;;;28.68;36.41;158701.97;1802887;79;21364;-73
2021/04/18 09:56:11;;;;;;;8.48;5.85;;;;;;;28.79;36.38;158731.25;1798243;79;21351;-70
2021/04/18 09:58:43;;;;;;;8.43;5.62;;;;;;;28.79;36.15;158731.25;1725375;79;21202;-77
2021/04/18 10:01:32;;;;;;;10.20;5.97;;;;;;;28.73;36.33;158716.61;1799345;79;21470;-71
2021/04/18 10:04:05;;;;;;;7.85;5.92;;;;;;;28.71;36.44;158711.28;1798708;79;21362;-76
2021/04/18 10:06:47;;;;;;;10.93;5.97;;;;;;;28.85;36.22;158748.61;1777485;79;21193;-71
2021/04/18 10:09:20;;;;;;;10.43;6.40;;;;;;;28.97;36.12;158779.25;1801795;79;21357;-72
2021/04/18 10:12:00;;;;;;;9.13;5.95;;;;;;;29.05;36.02;158801.84;1800940;79;21207;-73
2021/04/18 10:14:33;;;;;;;8.80;5.60;;;;;;;29.01;36.23;158789.86;1798373;79;21261;-73
2021/04/18 10:17:08;;;;;;;9.85;6.28;;;;;;;29.27;36.14;158859.11;1801829;79;21360;-74
2021/04/18 10:19:53;;;;;;;10.68;5.90;;;;;;;29.32;35.86;158872.44;1802329;79;21439;-72
2021/04/18 10:22:26;;;;;;;14.38;6.12;;;;;;;29.35;35.92;158881.75;1803366;79;21368;-74
2021/04/18 10:25:00;;;;;;;10.88;6.15;;;;;;;29.38;35.56;158889.81;1801740;79;21826;-70
2021/04/18 10:27:33;;;;;;;8.68;5.62;;;;;;;29.31;35.79;158871.08;1802607;79;21369;-69
2021/04/18 10:30:08;;;;;;;10.70;6.08;;;;;;;29.13;35.80;158821.81;1802687;79;21317;-69
2021/04/18 10:32:41;;;;;;;9.93;6.58;;;;;;;29.07;35.82;158807.17;1802191;79;21219;-71
2021/04/18 10:35:15;;;;;;;10.00;5.90;;;;;;;29.09;35.92;158812.50;1804356;79;21329;-72
2021/04/18 10:37:47;;;;;;;10.30;6.60;;;;;;;29.25;35.88;158855.12;1806375;79;21201;-71
2021/04/18 10:40:22;;;;;;;9.18;6.37;;;;;;;29.31;35.87;158869.78;1805078;79;21516;-72
2021/04/18 10:42:54;;;;;;;7.87;5.78;;;;;;;29.25;35.90;158855.12;1799856;79;21729;-71
2021/04/18 10:45:27;;;;;;;9.25;5.80;;;;;;;29.29;36.01;158864.44;1800994;79;21198;-70
2021/04/18 10:47:59;;;;;;;10.10;6.33;;;;;;;29.36;35.82;158884.42;1803396;79;21216;-69
2021/04/18 10:50:33;;;;;;;12.20;6.65;;;;;;;29.39;35.83;158893.78;1787421;79;21205;-70
2021/04/18 10:53:05;;;;;;;9.03;5.65;;;;;;;29.43;35.84;158903.09;1785419;77;21728;-75
2021/04/18 10:55:39;;;;;;;7.37;5.08;;;;;;;29.46;35.56;158911.09;1793093;77;21621;-71
2021/04/18 10:58:14;;;;;;;10.40;5.28;;;;;;;29.31;35.59;158871.08;1798975;77;21395;-71
2021/04/18 11:00:46;;;;;;;8.60;5.37;;;;;;;29.24;35.61;158852.47;1778211;79;21214;-67
2021/04/18 11:03:19;;;;;;;8.75;5.40;;;;;;;29.28;35.80;158861.78;1762280;80;21162;-68
2021/04/18 11:05:52;;;;;;;7.67;6.33;;;;;;;29.31;35.75;158871.08;1771846;80;21253;-70
2021/04/18 11:08:24;;;;;;;7.70;5.47;;;;;;;29.30;35.84;158867.11;1766249;80;21235;-69
2021/04/18 11:10:56;;;;;;;9.30;5.85;;;;;;;29.40;35.99;158895.09;1756797;81;21281;-69
2021/04/18 11:13:42;;;;;;;7.25;5.70;;;;;;;29.52;35.84;158928.41;1760671;80;21226;-69
2021/04/18 11:16:15;;;;;;;8.63;6.25;;;;;;;29.68;35.80;158969.69;1731754;80;21887;-70
2021/04/18 11:18:47;;;;;;;7.85;5.22;;;;;;;29.90;35.75;159028.30;1797717;78;21400;-72
2021/04/18 11:21:20;;;;;;;7.10;5.37;;;;;;;30.04;35.43;159066.97;1800305;77;21849;-68
2021/04/18 11:23:55;;;;;;;8.33;5.62;;;;;;;30.09;35.25;159079.00;1820545;77;21839;-66
2021/04/18 11:26:28;;;;;;;10.95;5.42;;;;;;;30.13;34.97;159090.98;1819150;77;21225;-72
2021/04/18 11:29:02;;;;;;;8.55;5.90;;;;;;;30.20;35.12;159108.31;1814972;77;21407;-66
2021/04/18 11:31:34;;;;;;;6.85;5.28;;;;;;;30.19;35.02;159106.95;1799240;78;21375;-67
2021/04/18 11:34:07;;;;;;;9.18;6.45;;;;;;;30.31;35.23;159137.63;1792936;78;21210;-67
2021/04/18 11:36:40;;;;;;;6.92;5.35;;;;;;;30.54;35.07;159201.64;1805416;79;21411;-73
2021/04/18 11:39:12;;;;;;;13.93;5.85;;;;;;;30.81;34.76;159273.58;1784334;79;21899;-72
2021/04/18 11:41:44;;;;;;;8.80;6.17;;;;;;;31.14;34.58;159360.30;1809837;79;21273;-70
2021/04/18 11:44:17;;;;;;;8.33;6.30;;;;;;;31.23;34.52;159385.66;1808975;79;21347;-71
2021/04/18 11:46:49;;;;;;;10.25;5.53;;;;;;;31.17;34.49;159369.62;1797864;79;21926;-70
2021/04/18 11:49:23;;;;;;;7.42;5.40;;;;;;;31.38;34.23;159425.63;1807869;79;21367;-68
2021/04/18 11:51:56;;;;;;;7.10;5.40;;;;;;;31.57;34.09;159476.37;1814429;77;21759;-69
2021/04/18 11:54:30;;;;;;;7.87;4.65;;;;;;;31.79;33.61;159535.06;1822979;77;21217;-69